Time;durP1;ratioP1;P1;durP2;ratioP2;P2;SDS_P1;SDS_P2;PMS_P1;PMS_P2;Temp;Humidity;BMP_temperature;BMP_pressure;BME280_temperature;BME280_humidity;BME280_pressure;Samples;Min_cycle;Max_cycle;Signal;HPM_P1;HPM_P2
2021/07/24 00:01:12;;;;;;;15.57;6.18;;;21.80;74.20;;;;;;5092889;28;20356;-67
2021/07/24 00:03:38;;;;;;;10.75;6.38;;;21.70;74.30;;;;;;5091840;28;20027;-67
2021/07/24 00:06:07;;;;;;;11.45;6.30;;;21.70;74.30;;;;;;5093495;28;20028;-67
2021/07/24 00:08:36;;;;;;;11.07;6.57;;;21.70;74.30;;;;;;5092509;28;20468;-67
2021/07/24 00:11:07;;;;;;;10.05;5.65;;;21.70;74.40;;;;;;5092007;28;20054;-67
2021/07/24 00:13:34;;;;;;;12.38;6.60;;;21.70;74.50;;;;;;5091428;28;20047;-67
2021/07/24 00:16:01;;;;;;;12.07;6.80;;;21.60;74.40;;;;;;5093752;28;20040;-67
2021/07/24 00:18:26;;;;;;;13.38;5.80;;;21.70;74.50;;;;;;5089116;28;20108;-67
2021/07/24 00:20:52;;;;;;;20.48;6.60;;;21.70;75.20;;;;;;5078669;28;20115;-67
2021/07/24 00:23:17;;;;;;;17.67;6.20;;;21.70;74.60;;;;;;5092645;28;20126;-67
2021/07/24 00:25:43;;;;;;;10.82;6.07;;;21.60;74.50;;;;;;5091664;28;20040;-67
2021/07/24 00:28:09;;;;;;;12.27;6.13;;;21.60;74.60;;;;;;5092565;28;20028;-67
2021/07/24 00:30:39;;;;;;;13.45;6.18;;;21.60;74.70;;;;;;5088100;28;20075;-67
2021/07/24 00:33:10;;;;;;;9.50;6.18;;;21.60;74.80;;;;;;5093089;28;20525;-67
2021/07/24 00:35:37;;;;;;;9.45;6.05;;;21.60;74.70;;;;;;5089087;28;20036;-67
2021/07/24 00:38:03;;;;;;;12.65;6.72;;;21.60;74.80;;;;;;5092291;28;20020;-67
2021/07/24 00:40:35;;;;;;;14.75;6.88;;;21.60;74.70;;;;;;5090178;28;20099;-67
2021/07/24 00:43:02;;;;;;;12.45;6.68;;;21.50;74.70;;;;;;5084839;28;20372;-67
2021/07/24 00:45:34;;;;;;;13.20;7.00;;;21.60;74.80;;;;;;5089420;28;20028;-67
2021/07/24 00:48:01;;;;;;;14.15;7.90;;;21.50;74.70;;;;;;5084761;28;20365;-67
2021/07/24 00:50:52;;;;;;;14.40;6.60;;;21.50;74.80;;;;;;5092806;28;20048;-67
2021/07/24 00:53:22;;;;;;;13.18;6.85;;;21.50;74.80;;;;;;5085454;28;20025;-67
2021/07/24 00:55:51;;;;;;;11.48;6.88;;;21.40;74.80;;;;;;5090028;28;20111;-67
2021/07/24 00:58:24;;;;;;;15.77;7.10;;;21.40;74.90;;;;;;5089226;28;20039;-67
2021/07/24 01:00:50;;;;;;;;;;;21.40;74.80;;;;;;5089361;28;20039;-67
2021/07/24 01:03:16;;;;;;;15.50;6.70;;;21.40;74.70;;;;;;5085689;28;19912;-67
2021/07/24 01:05:45;;;;;;;16.52;7.10;;;21.30;74.60;;;;;;5087943;28;20028;-67
2021/07/24 01:08:12;;;;;;;23.50;7.20;;;21.30;74.80;;;;;;5083862;28;20551;-67
2021/07/24 01:10:38;;;;;;;11.40;6.70;;;21.30;74.80;;;;;;5083901;28;20075;-67
2021/07/24 01:13:05;;;;;;;14.63;7.22;;;21.20;74.80;;;;;;5085328;28;20081;-67
2021/07/24 01:15:32;;;;;;;15.15;7.70;;;21.20;74.70;;;;;;5086713;28;20066;-67
2021/07/24 01:17:58;;;;;;;10.73;6.50;;;21.20;74.70;;;;;;5092895;28;20028;-67
2021/07/24 01:20:27;;;;;;;12.95;7.32;;;21.20;74.60;;;;;;5082213;28;20036;-67
2021/07/24 01:22:55;;;;;;;13.18;6.68;;;21.20;74.40;;;;;;5090435;28;20024;-67
2021/07/24 01:25:21;;;;;;;13.10;6.85;;;21.10;74.40;;;;;;5092188;28;20036;-67
2021/07/24 01:27:48;;;;;;;11.63;6.53;;;21.10;74.30;;;;;;5088395;28;20112;-67
2021/07/24 01:30:14;;;;;;;13.63;6.68;;;21.10;74.20;;;;;;5092336;28;20107;-67
2021/07/24 01:32:40;;;;;;;11.50;7.22;;;21.10;74.10;;;;;;5090280;28;20384;-67
2021/07/24 01:35:06;;;;;;;12.68;6.70;;;21.00;74.00;;;;;;5089096;28;20028;-67
2021/07/24 01:37:32;;;;;;;11.43;6.80;;;21.00;74.00;;;;;;5092474;28;20027;-67
2021/07/24 01:39:59;;;;;;;13.50;7.40;;;21.00;74.10;;;;;;5091799;28;20103;-67
2021/07/24 01:42:26;;;;;;;12.25;7.32;;;20.90;74.00;;;;;;5090962;28;20127;-67
2021/07/24 01:45:01;;;;;;;13.82;7.05;;;20.90;74.00;;;;;;5091325;28;20433;-67
2021/07/24 01:47:27;;;;;;;14.23;7.72;;;20.90;73.90;;;;;;5084039;28;20024;-67
2021/07/24 01:52:48;;;;;;;16.13;7.80;;;20.90;74.00;;;;;;5092825;28;20111;-67
2021/07/24 01:55:34;;;;;;;17.98;7.97;;;20.80;74.00;;;;;;5087512;28;20071;-67
2021/07/24 01:58:27;;;;;;;15.40;8.48;;;20.70;74.10;;;;;;5083504;28;20043;-67
2021/07/24 02:01:04;;;;;;;16.38;8.32;;;20.70;74.20;;;;;;5081139;28;20039;-67
2021/07/24 02:03:42;;;;;;;16.85;7.65;;;20.70;74.40;;;;;;5084176;28;20028;-67
2021/07/24 02:06:41;;;;;;;14.27;8.10;;;20.70;74.40;;;;;;5090144;28;20034;-67
2021/07/24 02:09:19;;;;;;;15.50;7.70;;;20.60;74.50;;;;;;5091598;28;20351;-67
2021/07/24 02:11:51;;;;;;;13.60;7.60;;;20.60;74.60;;;;;;5089937;28;20514;-67
2021/07/24 02:14:20;;;;;;;13.75;7.47;;;20.60;74.50;;;;;;5080117;28;20114;-67
2021/07/24 02:16:51;;;;;;;12.80;7.55;;;20.50;74.50;;;;;;5089414;28;20020;-67
2021/07/24 02:19:22;;;;;;;17.27;7.63;;;20.50;74.50;;;;;;5090850;28;20030;-67
2021/07/24 02:21:47;;;;;;;12.57;7.78;;;20.50;74.60;;;;;;5090599;28;20094;-67
2021/07/24 02:24:15;;;;;;;14.98;7.28;;;20.40;74.60;;;;;;5091529;28;20391;-67
2021/07/24 02:26:42;;;;;;;13.00;7.30;;;20.40;74.80;;;;;;5092133;28;20028;-67
2021/07/24 02:29:08;;;;;;;17.02;8.68;;;20.40;74.80;;;;;;5091849;28;20024;-67
2021/07/24 02:31:34;;;;;;;12.43;7.70;;;20.30;74.80;;;;;;5085551;28;20047;-67
2021/07/24 02:34:02;;;;;;;11.80;7.32;;;20.30;74.70;;;;;;5089120;28;20085;-67
2021/07/24 02:36:29;;;;;;;15.45;8.20;;;20.40;74.90;;;;;;5085266;28;20036;-67
2021/07/24 02:38:55;;;;;;;12.90;8.18;;;20.30;75.00;;;;;;5084392;28;20061;-67
2021/07/24 02:41:21;;;;;;;18.52;7.93;;;20.30;75.20;;;;;;5079717;28;20036;-67
2021/07/24 02:43:47;;;;;;;12.68;7.93;;;20.20;75.20;;;;;;5085405;28;20111;-67
2021/07/24 02:46:19;;;;;;;15.45;8.85;;;20.20;75.40;;;;;;5087484;28;20107;-67
2021/07/24 02:48:47;;;;;;;11.55;7.03;;;20.20;75.40;;;;;;5089003;28;20052;-67
2021/07/24 02:51:21;;;;;;;14.80;8.18;;;20.20;75.50;;;;;;5088029;28;20071;-67
2021/07/24 02:53:49;;;;;;;14.10;7.85;;;20.20;75.60;;;;;;5085486;28;20026;-67
2021/07/24 02:56:16;;;;;;;11.80;7.55;;;20.20;75.70;;;;;;5086406;28;20036;-67
2021/07/24 02:58:41;;;;;;;14.38;7.60;;;20.20;75.80;;;;;;5093043;28;20024;-67
2021/07/24 03:01:08;;;;;;;14.32;7.28;;;20.10;75.80;;;;;;5094128;28;20394;-67
2021/07/24 03:03:35;;;;;;;13.00;6.97;;;20.10;75.80;;;;;;5076059;28;20029;-67
2021/07/24 03:06:01;;;;;;;17.88;7.43;;;20.10;75.60;;;;;;5082643;28;20084;-67
2021/07/24 03:08:27;;;;;;;12.70;7.40;;;20.00;75.50;;;;;;5089113;28;20020;-67
2021/07/24 03:10:52;;;;;;;12.57;7.30;;;20.00;75.40;;;;;;5095170;28;20437;-67
2021/07/24 03:13:18;;;;;;;14.02;7.10;;;20.00;75.50;;;;;;5095059;28;20490;-67
2021/07/24 03:15:44;;;;;;;11.75;6.43;;;19.90;75.40;;;;;;5095614;28;20081;-67
2021/07/24 03:18:09;;;;;;;13.93;7.68;;;20.00;75.60;;;;;;5094662;28;20092;-67
2021/07/24 03:20:35;;;;;;;14.85;7.80;;;20.00;75.60;;;;;;5094976;28;20030;-67
2021/07/24 03:23:01;;;;;;;16.83;7.50;;;19.90;75.60;;;;;;5094377;28;20016;-67
2021/07/24 03:25:27;;;;;;;12.50;7.55;;;19.90;75.80;;;;;;5093991;28;20089;-67
2021/07/24 03:27:53;;;;;;;11.60;7.05;;;19.90;75.70;;;;;;5095334;28;20042;-67
2021/07/24 03:30:20;;;;;;;13.90;7.93;;;19.90;75.70;;;;;;5094660;28;20114;-67
2021/07/24 03:32:45;;;;;;;14.43;7.75;;;19.90;75.70;;;;;;5088523;28;20024;-67
2021/07/24 03:35:11;;;;;;;14.80;7.05;;;19.90;75.60;;;;;;5086554;28;20039;-67
2021/07/24 03:37:37;;;;;;;16.02;7.65;;;19.80;75.50;;;;;;5088869;28;20039;-67
2021/07/24 03:40:03;;;;;;;11.77;7.70;;;19.80;75.50;;;;;;5088176;28;20107;-67
2021/07/24 03:42:29;;;;;;;14.23;7.82;;;19.80;75.60;;;;;;5088611;28;20462;-67
2021/07/24 03:44:54;;;;;;;12.50;7.28;;;19.80;75.70;;;;;;5086845;28;20059;-67
2021/07/24 03:47:20;;;;;;;15.52;7.38;;;19.80;75.70;;;;;;5091766;28;20111;-68
2021/07/24 03:49:46;;;;;;;14.00;7.85;;;19.70;75.90;;;;;;5090279;28;20031;-69
2021/07/24 03:52:11;;;;;;;13.10;7.65;;;19.70;76.00;;;;;;5088261;28;20100;-68
2021/07/24 03:54:37;;;;;;;14.02;8.00;;;19.70;76.10;;;;;;5091450;28;20027;-68
2021/07/24 03:57:03;;;;;;;13.48;8.05;;;19.70;76.20;;;;;;5092173;28;20028;-68
2021/07/24 03:59:29;;;;;;;14.95;7.57;;;19.70;76.10;;;;;;5092244;28;20500;-68
2021/07/24 04:01:57;;;;;;;14.82;7.60;;;19.70;76.00;;;;;;5093431;28;20028;-67
2021/07/24 04:04:22;;;;;;;16.20;8.25;;;19.60;75.80;;;;;;5094891;28;20032;-67
2021/07/24 04:06:49;;;;;;;13.02;7.30;;;19.60;75.60;;;;;;5091169;28;20387;-67
2021/07/24 04:09:15;;;;;;;10.88;7.05;;;19.60;75.40;;;;;;5093358;28;20034;-67
2021/07/24 04:11:41;;;;;;;12.93;7.15;;;19.60;75.20;;;;;;5088199;28;20048;-67
2021/07/24 04:14:07;;;;;;;12.93;6.95;;;19.50;75.00;;;;;;5094091;28;20020;-67
2021/07/24 04:16:33;;;;;;;14.93;7.65;;;19.50;75.10;;;;;;5087536;28;20376;-67
2021/07/24 04:19:00;;;;;;;14.25;8.00;;;19.50;75.20;;;;;;5086477;28;20051;-67
2021/07/24 04:21:26;;;;;;;12.18;7.65;;;19.40;75.60;;;;;;5090237;28;20056;-67
2021/07/24 04:23:52;;;;;;;15.13;8.35;;;19.40;75.80;;;;;;5089464;28;20051;-67
2021/07/24 04:26:18;;;;;;;12.43;7.65;;;19.40;76.10;;;;;;5084517;28;20059;-67
2021/07/24 04:28:44;;;;;;;14.63;8.20;;;19.30;76.20;;;;;;5080815;28;20559;-67
2021/07/24 04:31:13;;;;;;;15.68;8.07;;;19.40;76.40;;;;;;5085045;28;20126;-67
2021/07/24 04:33:40;;;;;;;13.02;7.78;;;19.30;76.50;;;;;;5080180;28;20063;-67
2021/07/24 04:36:06;;;;;;;15.85;7.63;;;19.30;76.70;;;;;;5092093;28;20032;-67
2021/07/24 04:38:32;;;;;;;14.35;8.35;;;19.30;76.80;;;;;;5083207;28;20027;-67
2021/07/24 04:40:57;;;;;;;13.98;7.65;;;19.30;76.90;;;;;;5093825;28;20039;-67
2021/07/24 04:43:23;;;;;;;14.77;7.53;;;19.30;77.00;;;;;;5082023;28;20064;-67
2021/07/24 04:45:52;;;;;;;16.05;7.75;;;19.30;77.20;;;;;;5078243;28;20023;-67
2021/07/24 04:48:17;;;;;;;15.55;8.55;;;19.20;77.40;;;;;;5082383;28;20028;-67
2021/07/24 04:50:50;;;;;;;15.73;8.27;;;19.20;77.60;;;;;;5078562;28;20433;-67
2021/07/24 04:53:16;;;;;;;16.25;8.95;;;19.20;78.60;;;;;;5081702;28;20035;-67
2021/07/24 04:55:42;;;;;;;18.27;9.15;;;19.20;78.20;;;;;;5079009;28;20115;-67
2021/07/24 04:58:09;;;;;;;16.45;8.23;;;19.20;78.50;;;;;;5088501;28;20431;-67
2021/07/24 05:00:37;;;;;;;15.00;8.65;;;19.20;78.80;;;;;;5093524;28;20032;-67
2021/07/24 05:03:04;;;;;;;17.23;9.60;;;19.20;79.20;;;;;;5092732;28;20028;-67
2021/07/24 05:05:29;;;;;;;16.38;9.60;;;19.20;79.50;;;;;;5092642;28;20024;-67
2021/07/24 05:07:55;;;;;;;15.90;9.50;;;19.20;79.80;;;;;;5093121;28;20036;-67
2021/07/24 05:10:21;;;;;;;18.75;9.68;;;19.20;80.00;;;;;;5093770;28;20109;-67
2021/07/24 05:12:47;;;;;;;13.13;8.50;;;19.20;80.30;;;;;;5091087;28;20020;-67
2021/07/24 05:15:12;;;;;;;17.17;9.00;;;19.20;80.50;;;;;;5085325;28;20056;-67
2021/07/24 05:17:40;;;;;;;16.77;9.13;;;19.20;80.60;;;;;;5087321;28;20035;-67
2021/07/24 05:20:06;;;;;;;16.40;9.45;;;19.20;80.70;;;;;;5090669;28;20032;-67
2021/07/24 05:22:32;;;;;;;14.73;8.27;;;19.20;80.90;;;;;;5093407;28;20127;-67
2021/07/24 05:24:58;;;;;;;16.35;8.45;;;19.20;81.00;;;;;;5089169;28;20139;-68
2021/07/24 05:27:23;;;;;;;13.95;7.78;;;19.20;81.20;;;;;;5088278;28;20115;-67
2021/07/24 05:29:49;;;;;;;14.55;8.77;;;19.20;81.20;;;;;;5086246;28;20039;-67
2021/07/24 05:32:14;;;;;;;16.27;7.25;;;19.20;81.00;;;;;;5086227;28;20040;-67
2021/07/24 05:34:40;;;;;;;14.65;7.95;;;19.30;80.80;;;;;;5091912;28;20031;-67
2021/07/24 05:37:09;;;;;;;16.90;8.18;;;19.30;80.80;;;;;;5087729;28;20028;-69
2021/07/24 05:39:34;;;;;;;26.20;6.85;;;19.30;81.00;;;;;;5092611;28;20050;-69
2021/07/24 05:42:00;;;;;;;11.38;6.10;;;19.30;80.80;;;;;;5090566;28;20398;-69
2021/07/24 05:44:26;;;;;;;11.38;5.60;;;19.30;80.50;;;;;;5092794;28;20165;-68
2021/07/24 05:46:51;;;;;;;9.27;5.32;;;19.30;80.40;;;;;;5091727;28;20027;-68
2021/07/24 05:49:17;;;;;;;9.30;5.55;;;19.40;80.40;;;;;;5089952;28;20027;-67
2021/07/24 05:51:43;;;;;;;14.82;6.25;;;19.40;80.30;;;;;;5086784;28;20506;-68
2021/07/24 05:54:12;;;;;;;14.52;5.72;;;19.40;80.40;;;;;;5086961;28;20031;-68
2021/07/24 05:56:38;;;;;;;9.65;5.82;;;19.40;80.30;;;;;;5089664;28;20032;-68
2021/07/24 05:59:06;;;;;;;11.07;5.20;;;19.40;80.30;;;;;;5086945;28;20024;-68
2021/07/24 06:01:32;;;;;;;10.48;5.22;;;19.40;80.00;;;;;;5080952;28;20036;-69
2021/07/24 06:03:58;;;;;;;13.32;6.20;;;19.50;80.60;;;;;;5092256;28;20531;-68
2021/07/24 06:06:23;;;;;;;10.43;5.03;;;19.50;80.00;;;;;;5092846;28;20404;-68
2021/07/24 06:08:52;;;;;;;10.57;5.90;;;19.50;80.10;;;;;;5091827;28;20020;-68
2021/07/24 06:11:18;;;;;;;12.30;5.63;;;19.50;79.90;;;;;;5091761;28;20056;-68
2021/07/24 06:13:43;;;;;;;11.88;6.25;;;19.60;79.80;;;;;;5092672;28;20038;-68
2021/07/24 06:16:09;;;;;;;11.75;5.20;;;19.50;79.60;;;;;;5088004;28;20391;-67
2021/07/24 06:18:36;;;;;;;11.80;5.80;;;19.60;79.70;;;;;;5073976;28;20031;-68
2021/07/24 06:21:02;;;;;;;12.18;5.35;;;19.60;79.60;;;;;;5083706;28;20022;-68
2021/07/24 06:23:27;;;;;;;7.90;4.75;;;19.70;79.70;;;;;;5081154;28;20028;-68
2021/07/24 06:25:53;;;;;;;14.70;6.18;;;19.70;79.60;;;;;;5081066;28;20037;-68
2021/07/24 06:28:21;;;;;;;11.18;6.60;;;19.70;79.50;;;;;;5090709;28;20039;-68
2021/07/24 06:30:46;;;;;;;10.48;6.20;;;19.70;79.50;;;;;;5091351;28;20054;-68
2021/07/24 06:33:12;;;;;;;8.07;3.67;;;19.70;79.40;;;;;;5088909;28;20020;-68
2021/07/24 06:35:38;;;;;;;12.38;6.10;;;19.80;79.40;;;;;;5081846;28;20510;-67
2021/07/24 06:38:04;;;;;;;17.50;7.20;;;19.80;79.60;;;;;;5077617;28;20067;-69
2021/07/24 06:40:29;;;;;;;10.38;5.22;;;19.80;79.40;;;;;;5079068;28;20024;-69
2021/07/24 06:42:55;;;;;;;11.45;3.88;;;19.90;79.30;;;;;;5091242;28;20028;-68
2021/07/24 06:45:22;;;;;;;12.25;6.30;;;19.80;79.50;;;;;;5088557;28;20110;-68
2021/07/24 06:47:48;;;;;;;12.77;5.68;;;19.90;80.10;;;;;;5090218;28;20016;-67
2021/07/24 06:50:14;;;;;;;12.75;6.63;;;19.90;79.40;;;;;;5090306;28;21092;-68
2021/07/24 06:52:39;;;;;;;8.73;4.65;;;19.90;79.20;;;;;;5086263;28;20066;-68
2021/07/24 06:55:06;;;;;;;15.95;6.32;;;19.90;79.20;;;;;;5090642;28;20511;-68
2021/07/24 06:57:31;;;;;;;9.35;5.32;;;19.90;79.20;;;;;;5089026;28;20063;-67
2021/07/24 06:59:58;;;;;;;17.65;5.35;;;20.00;79.20;;;;;;5089470;28;20055;-68
2021/07/24 07:02:23;;;;;;;12.88;5.63;;;20.00;79.30;;;;;;5090170;28;20103;-68
2021/07/24 07:04:49;;;;;;;9.07;4.57;;;20.10;79.40;;;;;;5078542;28;20612;-68
2021/07/24 07:07:15;;;;;;;8.48;4.07;;;20.10;79.30;;;;;;5088069;28;20016;-68
2021/07/24 07:09:40;;;;;;;10.30;3.50;;;20.20;79.40;;;;;;5089580;28;20032;-69
2021/07/24 07:12:06;;;;;;;13.32;5.57;;;20.10;79.20;;;;;;5088034;28;20109;-69
2021/07/24 07:14:32;;;;;;;14.20;5.75;;;20.10;79.30;;;;;;5088988;28;20020;-69
2021/07/24 07:16:58;;;;;;;13.07;5.97;;;20.20;79.40;;;;;;5089521;28;20554;-69
2021/07/24 07:19:23;;;;;;;8.82;4.03;;;20.20;79.40;;;;;;5086498;28;20024;-70
2021/07/24 07:21:50;;;;;;;8.57;4.80;;;20.20;79.30;;;;;;5089926;28;20530;-69
2021/07/24 07:24:15;;;;;;;13.05;5.80;;;20.30;79.40;;;;;;5089351;28;20025;-69
2021/07/24 07:26:42;;;;;;;11.90;4.60;;;20.30;80.00;;;;;;5086498;28;20036;-69
2021/07/24 07:29:08;;;;;;;10.40;5.50;;;20.30;79.30;;;;;;5090774;28;20107;-69
2021/07/24 07:31:36;;;;;;;9.20;4.80;;;20.40;79.30;;;;;;5090184;28;20040;-70
2021/07/24 07:34:03;;;;;;;15.77;6.28;;;20.40;79.30;;;;;;5087111;28;20502;-71
2021/07/24 07:36:29;;;;;;;11.43;5.95;;;20.40;79.40;;;;;;5091412;28;20023;-71
2021/07/24 07:38:55;;;;;;;11.90;5.35;;;20.50;79.40;;;;;;5074627;28;20028;-76
2021/07/24 07:41:21;;;;;;;16.23;6.25;;;20.50;79.30;;;;;;5074151;28;20077;-75
2021/07/24 07:43:47;;;;;;;11.15;6.35;;;20.50;79.20;;;;;;5083810;28;20059;-71
2021/07/24 07:46:14;;;;;;;13.68;5.55;;;20.60;79.30;;;;;;5085784;28;20480;-72
2021/07/24 07:48:40;;;;;;;12.82;5.90;;;20.60;79.30;;;;;;5090712;28;20036;-71
2021/07/24 07:51:07;;;;;;;10.05;3.95;;;20.60;79.30;;;;;;5092987;28;20040;-70
2021/07/24 07:53:33;;;;;;;13.20;5.57;;;20.70;79.10;;;;;;5091383;28;20035;-71
2021/07/24 07:56:06;;;;;;;10.35;6.47;;;20.70;79.10;;;;;;5092999;28;20114;-71
2021/07/24 07:58:32;;;;;;;14.52;6.47;;;20.70;78.80;;;;;;5092537;28;20472;-70
2021/07/24 08:00:57;;;;;;;13.18;5.47;;;20.80;79.10;;;;;;5090159;28;20032;-69
2021/07/24 08:03:26;;;;;;;11.68;5.78;;;20.80;79.20;;;;;;5091942;28;20047;-69
2021/07/24 08:05:53;;;;;;;11.80;4.20;;;20.90;78.80;;;;;;5093712;28;20047;-69
2021/07/24 08:08:19;;;;;;;7.65;3.22;;;20.90;78.40;;;;;;5084972;28;20036;-69
2021/07/24 08:10:46;;;;;;;6.43;4.03;;;21.00;78.00;;;;;;5092266;28;20047;-70
2021/07/24 08:13:13;;;;;;;12.45;4.70;;;21.10;77.60;;;;;;5089518;28;20471;-69
2021/07/24 08:15:39;;;;;;;7.40;3.60;;;21.00;77.60;;;;;;5091735;28;20430;-72
2021/07/24 08:18:05;;;;;;;8.73;4.55;;;21.10;77.70;;;;;;5082692;28;20027;-69
2021/07/24 08:20:31;;;;;;;11.77;4.85;;;21.10;77.50;;;;;;5092537;28;20119;-70
2021/07/24 08:22:57;;;;;;;9.23;4.90;;;21.20;77.60;;;;;;5083175;28;20030;-70
2021/07/24 08:25:22;;;;;;;8.85;4.75;;;21.30;77.50;;;;;;5087180;28;20032;-69
2021/07/24 08:27:48;;;;;;;11.15;5.10;;;21.20;77.30;;;;;;5092221;28;20020;-70
2021/07/24 08:30:14;;;;;;;15.70;6.22;;;21.30;77.50;;;;;;5091122;28;20044;-69
2021/07/24 08:32:39;;;;;;;10.82;5.28;;;21.40;77.40;;;;;;5089801;28;20032;-70
2021/07/24 08:35:05;;;;;;;11.32;5.78;;;21.40;77.40;;;;;;5087261;28;20070;-70
2021/07/24 08:37:34;;;;;;;8.93;5.45;;;21.40;77.30;;;;;;5089887;28;20047;-68
2021/07/24 08:40:00;;;;;;;11.07;5.07;;;21.50;77.50;;;;;;5089294;28;20467;-66
2021/07/24 08:42:37;;;;;;;8.88;5.60;;;21.60;77.40;;;;;;5091481;28;20115;-72
2021/07/24 08:45:03;;;;;;;11.82;5.93;;;21.60;77.30;;;;;;5090615;28;20103;-73
2021/07/24 08:47:32;;;;;;;12.35;5.32;;;21.70;77.50;;;;;;5092414;28;20027;-70
2021/07/24 08:50:03;;;;;;;10.38;5.13;;;21.70;77.70;;;;;;5092367;28;20066;-70
2021/07/24 08:52:31;;;;;;;7.90;4.68;;;21.80;77.30;;;;;;5090607;28;20036;-70
2021/07/24 08:54:58;;;;;;;11.15;5.05;;;21.80;77.40;;;;;;5092813;28;20040;-70
2021/07/24 08:57:33;;;;;;;9.57;5.22;;;21.90;77.00;;;;;;5091360;28;20028;-70
2021/07/24 09:00:12;;;;;;;10.32;3.78;;;21.90;76.50;;;;;;5093590;28;20020;-70
2021/07/24 09:02:40;;;;;;;11.77;4.78;;;22.00;76.80;;;;;;5090425;28;20028;-71
2021/07/24 09:05:07;;;;;;;7.60;4.15;;;22.00;77.00;;;;;;5083919;28;20044;-71
2021/07/24 09:07:36;;;;;;;9.10;5.55;;;22.10;76.80;;;;;;5090433;28;20070;-70
2021/07/24 09:10:03;;;;;;;10.27;5.60;;;22.10;76.60;;;;;;5087397;28;20538;-70
2021/07/24 09:12:29;;;;;;;12.43;5.70;;;22.10;76.90;;;;;;5091539;28;20449;-70
2021/07/24 09:14:55;;;;;;;13.35;4.95;;;22.10;76.30;;;;;;5075743;28;20444;-70
2021/07/24 09:17:22;;;;;;;8.80;4.45;;;22.20;76.50;;;;;;5087223;28;20477;-70
2021/07/24 09:19:51;;;;;;;11.95;5.50;;;22.10;76.60;;;;;;5089566;28;20021;-70
2021/07/24 09:22:36;;;;;;;12.40;5.10;;;22.20;76.40;;;;;;5091332;28;20032;-70
2021/07/24 09:25:12;;;;;;;13.05;5.95;;;22.20;76.50;;;;;;5086961;28;20491;-70
2021/07/24 09:27:42;;;;;;;9.38;5.22;;;22.20;76.50;;;;;;5074332;28;20036;-71
2021/07/24 09:30:24;;;;;;;5.45;3.38;;;22.20;76.60;;;;;;5087020;28;20029;-71
2021/07/24 09:33:05;;;;;;;13.63;5.32;;;22.30;77.00;;;;;;5086041;28;20047;-70
2021/07/24 09:35:54;;;;;;;13.32;5.70;;;22.40;76.50;;;;;;5090142;28;20433;-70
2021/07/24 09:38:30;;;;;;;12.15;5.22;;;22.40;76.70;;;;;;5077151;28;20036;-70
2021/07/24 09:40:58;;;;;;;9.95;5.10;;;22.40;76.80;;;;;;5090576;28;20085;-70
2021/07/24 09:43:33;;;;;;;11.77;5.20;;;22.50;76.60;;;;;;5091375;28;20491;-70
2021/07/24 09:46:15;;;;;;;8.80;5.07;;;22.50;76.30;;;;;;5091668;28;20499;-70
2021/07/24 09:49:14;;;;;;;18.67;5.32;;;22.50;76.40;;;;;;5092600;28;20047;-70
2021/07/24 09:51:45;;;;;;;14.70;6.50;;;22.60;76.70;;;;;;5084322;28;20079;-70
2021/07/24 09:54:27;;;;;;;9.77;5.32;;;22.60;76.40;;;;;;5086932;28;20035;-70
2021/07/24 09:56:54;;;;;;;7.05;4.28;;;22.70;76.60;;;;;;5089883;28;20097;-70
2021/07/24 09:59:23;;;;;;;9.80;5.10;;;22.70;76.90;;;;;;5091292;28;20059;-71
2021/07/24 10:02:28;;;;;;;13.95;5.38;;;22.80;76.50;;;;;;5091915;28;20031;-70
2021/07/24 10:04:55;;;;;;;12.75;6.00;;;22.80;76.40;;;;;;5086282;28;20486;-71
2021/07/24 10:07:23;;;;;;;11.27;5.43;;;22.80;76.50;;;;;;5090261;28;20160;-71
2021/07/24 10:09:49;;;;;;;10.00;3.97;;;22.90;76.50;;;;;;5090622;28;20020;-70
2021/07/24 10:12:16;;;;;;;16.80;6.82;;;22.90;76.70;;;;;;5091718;28;20048;-70
2021/07/24 10:14:43;;;;;;;13.50;5.60;;;23.00;76.20;;;;;;5080366;28;20047;-70
2021/07/24 10:17:08;;;;;;;11.80;6.38;;;23.00;76.50;;;;;;5082639;28;20107;-71
2021/07/24 10:19:34;;;;;;;12.63;5.85;;;23.00;76.30;;;;;;5090523;28;20099;-71
2021/07/24 10:22:01;;;;;;;10.93;6.15;;;23.00;76.50;;;;;;5083342;28;20021;-70
2021/07/24 10:24:27;;;;;;;13.80;4.07;;;23.10;76.20;;;;;;5084015;28;20036;-70
2021/07/24 10:27:10;;;;;;;15.95;6.72;;;23.10;76.30;;;;;;5085226;28;20052;-70
2021/07/24 10:30:03;;;;;;;16.57;6.53;;;23.20;76.20;;;;;;5077544;28;20036;-70
2021/07/24 10:32:33;;;;;;;9.18;5.72;;;23.10;76.20;;;;;;5082669;28;20052;-71
2021/07/24 10:34:59;;;;;;;10.20;6.05;;;23.20;76.20;;;;;;5089100;28;20125;-69
2021/07/24 10:37:35;;;;;;;9.63;4.82;;;23.20;75.90;;;;;;5073943;28;20048;-71
2021/07/24 10:40:27;;;;;;;18.63;5.38;;;23.20;75.60;;;;;;5076526;28;20489;-70
2021/07/24 10:42:55;;;;;;;13.63;5.95;;;23.20;75.90;;;;;;5088557;28;20032;-70
2021/07/24 10:45:36;;;;;;;8.25;4.20;;;23.30;75.70;;;;;;5087918;28;20039;-71
2021/07/24 10:48:14;;;;;;;12.23;5.05;;;23.20;75.40;;;;;;5084658;28;20036;-70
2021/07/24 10:51:03;;;;;;;13.25;4.97;;;23.30;75.80;;;;;;5089654;28;20032;-70
2021/07/24 10:54:00;;;;;;;7.03;4.25;;;23.30;76.10;;;;;;5075792;28;20093;-70
2021/07/24 10:56:37;;;;;;;6.18;3.08;;;23.30;75.90;;;;;;5089238;28;20034;-70
2021/07/24 10:59:27;;;;;;;25.83;5.07;;;23.40;76.00;;;;;;5088803;28;20043;-70
2021/07/24 11:01:54;;;;;;;7.95;3.45;;;23.30;75.80;;;;;;5078217;28;20032;-70
2021/07/24 11:04:35;;;;;;;10.80;4.88;;;23.40;76.00;;;;;;5091507;28;20059;-69
2021/07/24 11:07:16;;;;;;;8.77;4.53;;;23.40;75.80;;;;;;5093416;28;20042;-72
2021/07/24 11:09:46;;;;;;;19.58;5.65;;;23.50;76.00;;;;;;5089857;28;20099;-71
2021/07/24 11:12:13;;;;;;;12.15;6.20;;;23.50;75.90;;;;;;5091158;28;20040;-71
2021/07/24 11:14:38;;;;;;;13.80;4.85;;;23.60;75.70;;;;;;5093652;28;20521;-73
2021/07/24 11:17:07;;;;;;;10.68;5.22;;;23.60;75.70;;;;;;5095342;28;20036;-71
2021/07/24 11:19:37;;;;;;;12.38;6.18;;;23.60;75.60;;;;;;5091853;28;20154;-70
2021/07/24 11:22:19;;;;;;;9.68;5.22;;;23.70;75.20;;;;;;5089189;28;20031;-70
2021/07/24 11:25:05;;;;;;;10.20;5.37;;;23.70;75.20;;;;;;5091865;28;20032;-71
2021/07/24 11:27:35;;;;;;;7.90;4.05;;;23.80;75.50;;;;;;5085707;28;20025;-70
2021/07/24 11:30:04;;;;;;;7.95;4.60;;;23.80;75.60;;;;;;5080717;28;20529;-71
2021/07/24 11:32:33;;;;;;;7.88;3.85;;;23.90;75.00;;;;;;5090346;28;20032;-71
2021/07/24 11:35:00;;;;;;;13.40;4.70;;;23.90;75.40;;;;;;5093298;28;20092;-71
2021/07/24 11:37:42;;;;;;;8.32;3.25;;;23.90;75.20;;;;;;5093656;28;20110;-71
2021/07/24 11:40:13;;;;;;;5.47;3.08;;;24.00;75.60;;;;;;5090688;28;20039;-71
2021/07/24 11:42:42;;;;;;;7.60;3.50;;;24.00;75.30;;;;;;5090206;28;20034;-71
2021/07/24 11:45:09;;;;;;;6.65;3.50;;;24.10;75.10;;;;;;5095224;28;20035;-71
2021/07/24 11:47:35;;;;;;;10.40;4.65;;;24.10;75.00;;;;;;5089765;28;20034;-71
2021/07/24 11:50:17;;;;;;;6.88;4.18;;;24.20;75.00;;;;;;5094036;28;20390;-71
2021/07/24 11:52:48;;;;;;;8.63;4.65;;;24.20;74.60;;;;;;5090188;28;20039;-71
2021/07/24 11:55:25;;;;;;;7.80;4.00;;;24.30;74.50;;;;;;5089333;28;20080;-71
2021/07/24 11:57:59;;;;;;;13.55;4.95;;;24.30;74.50;;;;;;5088484;28;20043;-71
2021/07/24 12:00:39;;;;;;;6.47;2.25;;;24.40;73.80;;;;;;5088687;28;20081;-71
2021/07/24 12:03:19;;;;;;;13.43;3.80;;;24.50;74.90;;;;;;5090894;28;20031;-71
2021/07/24 12:05:50;;;;;;;10.23;4.13;;;24.50;74.80;;;;;;5089784;28;20028;-71
2021/07/24 12:08:19;;;;;;;8.30;4.80;;;24.50;74.10;;;;;;5089384;28;20032;-71
2021/07/24 12:10:47;;;;;;;10.43;4.15;;;24.50;73.60;;;;;;5091535;28;20055;-71
2021/07/24 12:13:18;;;;;;;9.23;2.75;;;24.60;73.50;;;;;;5091292;28;20024;-71
2021/07/24 12:15:56;;;;;;;8.70;4.18;;;24.60;74.10;;;;;;5091801;28;20032;-71
2021/07/24 12:18:22;;;;;;;5.13;2.65;;;24.60;73.60;;;;;;5092083;28;20111;-71
2021/07/24 12:20:49;;;;;;;13.68;4.45;;;24.70;74.50;;;;;;5085944;28;20040;-73
2021/07/24 12:23:22;;;;;;;6.53;3.92;;;24.70;74.00;;;;;;5082877;28;20020;-71
2021/07/24 12:26:14;;;;;;;10.18;4.07;;;24.80;73.80;;;;;;5093458;28;20028;-71
2021/07/24 12:28:41;;;;;;;10.65;3.75;;;24.90;74.00;;;;;;5089129;28;20028;-71
2021/07/24 12:31:24;;;;;;;9.68;4.50;;;24.90;73.70;;;;;;5081512;28;20060;-71
2021/07/24 12:33:51;;;;;;;13.50;4.90;;;24.90;73.30;;;;;;5087971;28;20051;-71
2021/07/24 12:36:19;;;;;;;19.15;4.50;;;24.90;73.30;;;;;;5081050;28;20027;-71
2021/07/24 12:38:45;;;;;;;8.35;2.88;;;25.00;72.90;;;;;;5090581;28;20029;-71
2021/07/24 12:41:10;;;;;;;12.80;4.05;;;25.00;73.40;;;;;;5087197;28;20024;-73
2021/07/24 12:43:37;;;;;;;11.55;3.42;;;24.90;73.30;;;;;;5090838;28;20500;-75
2021/07/24 12:46:17;;;;;;;12.23;5.13;;;25.00;73.50;;;;;;5091265;28;20039;-70
2021/07/24 12:48:45;;;;;;;6.35;3.63;;;25.00;73.00;;;;;;5090589;28;20157;-71
2021/07/24 12:51:16;;;;;;;10.00;3.58;;;25.10;73.30;;;;;;5077210;28;20119;-71